createdAt,value
2018-11-02T00:01:51.199Z,11.20
2018-11-02T00:04:23.678Z,11.10
2018-11-02T00:06:54.979Z,11.10
2018-11-02T00:09:27.219Z,11.10
2018-11-02T00:11:59.119Z,11.10
2018-11-02T00:14:31.419Z,11.10
2018-11-02T00:17:03.726Z,11.00
2018-11-02T00:19:35.859Z,11.10
2018-11-02T00:22:08.362Z,11.10
2018-11-02T00:24:39.660Z,11.10
2018-11-02T00:27:11.518Z,11.10
2018-11-02T00:29:42.859Z,11.00
2018-11-02T00:32:15.079Z,11.00
2018-11-02T00:34:46.499Z,11.00
2018-11-02T00:37:19.299Z,11.00
2018-11-02T00:39:51.279Z,11.00
2018-11-02T00:42:23.040Z,11.00
2018-11-02T00:44:54.120Z,11.10
2018-11-02T00:47:25.439Z,11.00
2018-11-02T00:49:57.259Z,11.00
2018-11-02T00:52:29.160Z,10.90
2018-11-02T00:55:00.759Z,10.80
2018-11-02T00:57:32.919Z,10.80
2018-11-02T01:00:05.120Z,10.80
2018-11-02T01:02:37.740Z,10.80
2018-11-02T01:05:09.939Z,10.70
2018-11-02T01:07:41.679Z,10.60
2018-11-02T01:10:13.899Z,10.50
2018-11-02T01:12:46.239Z,10.50
2018-11-02T01:15:19.378Z,10.40
2018-11-02T01:17:51.480Z,10.40
2018-11-02T01:20:23.359Z,10.50
2018-11-02T01:22:55.452Z,10.60
2018-11-02T01:25:27.459Z,10.60
2018-11-02T01:27:59.999Z,10.70
2018-11-02T01:30:31.820Z,10.70
2018-11-02T01:33:03.399Z,10.60
2018-11-02T01:35:35.720Z,10.50
2018-11-02T01:38:08.259Z,10.50
2018-11-02T01:40:39.659Z,10.50
2018-11-02T01:43:10.919Z,10.50
2018-11-02T01:45:43.039Z,10.50
2018-11-02T01:48:15.259Z,10.50
2018-11-02T01:50:46.818Z,10.50
2018-11-02T01:53:18.879Z,10.50
2018-11-02T01:55:52.040Z,10.50
2018-11-02T01:58:24.164Z,10.60
2018-11-02T02:00:56.759Z,10.60
2018-11-02T02:03:28.861Z,10.60
2018-11-02T02:06:00.779Z,10.60
2018-11-02T02:08:32.806Z,10.70
2018-11-02T02:11:04.487Z,10.70
2018-11-02T02:13:36.328Z,10.70
2018-11-02T02:16:07.679Z,10.70
2018-11-02T02:18:39.799Z,10.60
2018-11-02T02:21:11.779Z,10.60
2018-11-02T02:23:43.761Z,10.60
2018-11-02T02:26:16.078Z,10.60
2018-11-02T02:28:48.240Z,10.60
2018-11-02T02:31:20.361Z,10.60
2018-11-02T02:33:51.820Z,10.60
2018-11-02T02:36:24.420Z,10.60
2018-11-02T02:38:55.901Z,10.60
2018-11-02T02:41:27.679Z,10.60
2018-11-02T02:43:59.499Z,10.50
2018-11-02T02:46:31.724Z,10.50
2018-11-02T02:49:03.019Z,10.60
2018-11-02T02:51:33.498Z,10.70
2018-11-02T02:54:05.961Z,10.70
2018-11-02T02:56:37.680Z,10.70
2018-11-02T02:59:09.080Z,10.60
2018-11-02T03:01:41.139Z,10.60
2018-11-02T03:04:13.258Z,10.50
2018-11-02T03:06:45.179Z,10.50
2018-11-02T03:09:16.922Z,10.50
2018-11-02T03:11:49.102Z,10.40
2018-11-02T03:14:20.379Z,10.40
2018-11-02T03:16:52.399Z,10.30
2018-11-02T03:19:23.839Z,10.30
2018-11-02T03:21:56.012Z,10.20
2018-11-02T03:24:27.618Z,10.20
2018-11-02T03:26:59.499Z,10.10
2018-11-02T03:29:31.419Z,10.10
2018-11-02T03:32:03.810Z,10.10
2018-11-02T03:34:35.921Z,10.10
2018-11-02T03:37:07.599Z,10.10
2018-11-02T03:39:39.339Z,10.00
2018-11-02T03:42:11.719Z,10.10
2018-11-02T03:44:42.459Z,10.10
2018-11-02T03:47:15.340Z,10.10
2018-11-02T03:49:47.978Z,10.10
2018-11-02T03:52:19.624Z,10.10
2018-11-02T03:54:51.879Z,10.10
2018-11-02T03:57:23.701Z,10.10
2018-11-02T03:59:56.059Z,10.10
2018-11-02T04:02:27.339Z,10.10
2018-11-02T04:04:59.979Z,10.10
2018-11-02T04:07:32.778Z,10.10
2018-11-02T04:10:04.300Z,10.10
2018-11-02T04:12:36.338Z,10.00
2018-11-02T04:15:08.899Z,10.00
2018-11-02T04:17:40.699Z,9.90
2018-11-02T04:20:12.759Z,9.90
2018-11-02T04:22:44.339Z,9.90
2018-11-02T04:25:16.425Z,9.90
2018-11-02T04:27:48.299Z,9.90
2018-11-02T04:30:20.381Z,9.90
2018-11-02T04:32:52.525Z,9.90
2018-11-02T04:35:24.319Z,9.90
2018-11-02T04:37:55.958Z,9.90
2018-11-02T04:40:28.079Z,9.90
2018-11-02T04:43:00.819Z,9.90
2018-11-02T04:45:36.798Z,9.80
2018-11-02T04:48:10.705Z,9.80
2018-11-02T04:50:43.055Z,9.80
2018-11-02T04:53:15.839Z,9.90
2018-11-02T04:55:48.779Z,9.90
2018-11-02T04:58:19.739Z,9.80
2018-11-02T05:00:51.699Z,9.80
2018-11-02T05:03:23.739Z,9.80
2018-11-02T05:05:56.158Z,9.90
2018-11-02T05:08:27.980Z,9.90
2018-11-02T05:10:59.959Z,9.90
2018-11-02T05:13:31.279Z,9.90
2018-11-02T05:16:02.878Z,9.80
2018-11-02T05:18:34.559Z,9.80
2018-11-02T05:21:06.541Z,9.80
2018-11-02T05:23:38.559Z,9.80
2018-11-02T05:26:10.600Z,9.80
2018-11-02T05:28:42.379Z,9.80
2018-11-02T05:31:14.019Z,9.80
2018-11-02T05:33:45.739Z,9.80
2018-11-02T05:36:17.979Z,9.80
2018-11-02T05:38:49.941Z,9.80
2018-11-02T05:41:21.518Z,9.70
2018-11-02T05:43:53.999Z,9.80
2018-11-02T05:46:25.479Z,9.90
2018-11-02T05:48:57.579Z,9.80
2018-11-02T05:51:30.479Z,9.80
2018-11-02T05:54:02.652Z,9.80
2018-11-02T05:56:35.980Z,9.90
2018-11-02T05:59:07.484Z,9.90
2018-11-02T06:01:39.469Z,10.00
2018-11-02T06:04:10.911Z,10.00
2018-11-02T06:06:42.738Z,10.00
2018-11-02T06:09:14.639Z,10.00
2018-11-02T06:11:46.479Z,9.90
2018-11-02T06:14:19.056Z,9.90
2018-11-02T06:16:50.895Z,10.00
2018-11-02T06:19:23.699Z,10.00
2018-11-02T06:21:56.517Z,10.10
2018-11-02T06:24:28.288Z,10.20
2018-11-02T06:27:00.378Z,10.20
2018-11-02T06:29:31.998Z,10.20
2018-11-02T06:32:03.738Z,10.20
2018-11-02T06:34:35.219Z,10.20
2018-11-02T06:37:07.978Z,10.20
2018-11-02T06:39:39.986Z,10.30
2018-11-02T06:42:12.319Z,10.30
2018-11-02T06:44:43.926Z,10.30
2018-11-02T06:47:16.259Z,10.30
2018-11-02T06:49:48.498Z,10.40
2018-11-02T06:52:20.259Z,10.40
2018-11-02T06:54:52.158Z,10.30
2018-11-02T06:57:23.838Z,10.30
2018-11-02T06:59:56.247Z,10.30
2018-11-02T07:02:27.718Z,10.40
2018-11-02T07:04:59.839Z,10.40
2018-11-02T07:07:31.785Z,10.40
2018-11-02T07:10:02.599Z,10.40
2018-11-02T07:12:34.579Z,10.40
2018-11-02T07:15:07.039Z,10.40
2018-11-02T07:17:39.041Z,10.40
2018-11-02T07:20:11.439Z,10.50
2018-11-02T07:22:42.898Z,10.50
2018-11-02T07:25:15.345Z,10.60
2018-11-02T07:27:48.239Z,10.70
2018-11-02T07:30:20.238Z,10.80
2018-11-02T07:32:52.919Z,10.80
2018-11-02T07:35:25.366Z,10.80
2018-11-02T07:37:57.540Z,10.90
2018-11-02T07:40:29.859Z,10.90
2018-11-02T07:43:02.419Z,10.90
2018-11-02T07:45:33.584Z,10.90
2018-11-02T07:48:05.333Z,11.00
2018-11-02T07:50:37.309Z,11.10
2018-11-02T07:53:08.810Z,11.20
2018-11-02T07:55:40.518Z,11.30
2018-11-02T07:58:12.933Z,11.40
2018-11-02T08:00:44.710Z,11.40
2018-11-02T08:03:17.272Z,11.50
2018-11-02T08:05:48.309Z,11.50
2018-11-02T08:08:21.265Z,11.60
2018-11-02T08:10:52.925Z,11.60
2018-11-02T08:13:25.146Z,11.60
2018-11-02T08:15:58.408Z,11.60
2018-11-02T08:18:30.545Z,11.60
2018-11-02T08:21:01.780Z,11.60
2018-11-02T08:23:32.777Z,11.60
2018-11-02T08:26:05.219Z,11.60
2018-11-02T08:28:37.540Z,11.60
2018-11-02T08:31:09.321Z,11.70
2018-11-02T08:33:40.939Z,11.70
2018-11-02T08:36:13.279Z,11.70
2018-11-02T08:38:45.721Z,11.80
2018-11-02T08:41:17.341Z,11.80
2018-11-02T08:43:49.846Z,11.90
2018-11-02T08:46:21.932Z,11.90
2018-11-02T08:48:54.609Z,11.90
2018-11-02T08:51:26.428Z,11.90
2018-11-02T08:53:58.497Z,12.00
2018-11-02T08:56:31.209Z,12.10
2018-11-02T08:59:04.891Z,12.10
2018-11-02T09:01:36.650Z,12.10
2018-11-02T09:04:08.509Z,12.10
2018-11-02T09:06:40.331Z,12.10
2018-11-02T09:09:12.769Z,12.10
2018-11-02T09:11:44.608Z,12.10
2018-11-02T09:14:16.669Z,12.20
2018-11-02T09:16:47.891Z,12.20
2018-11-02T09:19:20.045Z,12.20
2018-11-02T09:21:51.530Z,12.20
2018-11-02T09:24:23.885Z,12.30
2018-11-02T09:26:55.231Z,12.30
2018-11-02T09:29:26.749Z,12.40
2018-11-02T09:31:59.189Z,12.40
2018-11-02T09:34:32.275Z,12.50
2018-11-02T09:37:05.001Z,12.50
2018-11-02T09:39:36.816Z,12.50
2018-11-02T09:42:08.924Z,12.70
2018-11-02T09:44:41.124Z,12.80
2018-11-02T09:47:13.101Z,13.10
2018-11-02T09:49:45.100Z,13.30
2018-11-02T09:52:17.260Z,13.40
2018-11-02T09:54:49.000Z,13.60
2018-11-02T09:57:20.831Z,13.80
2018-11-02T09:59:53.331Z,13.90
2018-11-02T10:02:25.091Z,13.80
2018-11-02T10:04:57.958Z,13.70
2018-11-02T10:07:29.595Z,13.70
2018-11-02T10:10:01.954Z,13.70
2018-11-02T10:12:34.455Z,13.60
2018-11-02T10:15:07.096Z,13.60
2018-11-02T10:17:39.076Z,13.70
2018-11-02T10:20:11.797Z,13.70
2018-11-02T10:22:45.298Z,13.90
2018-11-02T10:25:16.555Z,14.20
2018-11-02T10:27:50.536Z,14.40
2018-11-02T10:30:22.035Z,14.60
2018-11-02T10:32:55.962Z,14.90
2018-11-02T10:35:27.547Z,15.20
2018-11-02T10:38:01.115Z,15.30
2018-11-02T10:40:34.396Z,15.40
2018-11-02T10:43:08.635Z,15.50
2018-11-02T10:45:44.315Z,15.60
2018-11-02T10:48:16.095Z,15.60
2018-11-02T10:53:31.574Z,15.60
2018-11-02T10:56:03.174Z,15.70
2018-11-02T10:58:35.586Z,15.80
2018-11-02T11:01:11.224Z,15.70
2018-11-02T11:03:43.681Z,15.70
2018-11-02T11:06:15.694Z,15.80
2018-11-02T11:08:47.453Z,15.80
2018-11-02T11:11:19.914Z,15.90
2018-11-02T11:13:52.435Z,16.00
2018-11-02T11:16:23.857Z,16.00
2018-11-02T11:18:56.695Z,16.00
2018-11-02T11:21:28.354Z,16.00
2018-11-02T11:24:00.376Z,16.00
2018-11-02T11:26:32.034Z,16.20
2018-11-02T11:29:04.534Z,16.20
2018-11-02T11:31:36.434Z,16.20
2018-11-02T11:34:09.535Z,16.20
2018-11-02T11:36:42.035Z,16.20
2018-11-02T11:39:15.726Z,16.30
2018-11-02T11:41:47.281Z,16.20
2018-11-02T11:44:19.663Z,16.10
2018-11-02T11:46:52.302Z,15.90
2018-11-02T11:49:24.942Z,15.70
2018-11-02T11:51:57.338Z,15.60
2018-11-02T11:54:29.636Z,15.70
2018-11-02T11:57:01.158Z,15.60
2018-11-02T11:59:33.239Z,15.60
2018-11-02T12:02:04.998Z,15.50
2018-11-02T12:04:36.908Z,15.30
2018-11-02T12:07:08.629Z,15.30
2018-11-02T12:09:39.870Z,15.30
2018-11-02T12:12:11.710Z,15.10
2018-11-02T12:14:44.028Z,15.10
2018-11-02T12:17:15.499Z,15.10
2018-11-02T12:19:47.638Z,15.10
2018-11-02T12:22:19.159Z,15.10
2018-11-02T12:24:51.079Z,15.00
2018-11-02T12:27:22.737Z,15.00
2018-11-02T12:29:55.159Z,15.00
2018-11-02T12:32:26.928Z,15.00
2018-11-02T12:34:58.877Z,14.90
2018-11-02T12:37:30.718Z,14.80
2018-11-02T12:40:02.239Z,14.80
2018-11-02T12:42:34.057Z,14.70
2018-11-02T12:45:06.234Z,14.70
2018-11-02T12:47:38.147Z,14.70
2018-11-02T12:50:12.486Z,14.70
2018-11-02T12:52:45.240Z,14.70
2018-11-02T12:55:18.940Z,14.70
2018-11-02T12:57:50.936Z,14.70
2018-11-02T13:00:24.597Z,14.70
2018-11-02T13:02:57.706Z,14.60
2018-11-02T13:05:29.187Z,14.60
2018-11-02T13:07:59.147Z,14.60
2018-11-02T13:10:31.515Z,14.60
2018-11-02T13:13:03.177Z,14.60
2018-11-02T13:15:36.364Z,14.70
2018-11-02T13:18:07.615Z,14.70
2018-11-02T13:20:39.688Z,14.60
2018-11-02T13:23:11.126Z,14.60
2018-11-02T13:25:43.864Z,14.60
2018-11-02T13:28:15.436Z,14.60
2018-11-02T13:30:47.430Z,14.50
2018-11-02T13:33:18.886Z,14.60
2018-11-02T13:35:50.968Z,14.60
2018-11-02T13:38:23.006Z,14.50
2018-11-02T13:40:55.026Z,14.50
2018-11-02T13:43:27.648Z,14.50
2018-11-02T13:46:00.166Z,14.50
2018-11-02T13:48:32.146Z,14.50
2018-11-02T13:51:04.547Z,14.40
2018-11-02T13:53:34.608Z,14.50
2018-11-02T13:56:05.905Z,14.50
2018-11-02T13:58:37.764Z,14.40
2018-11-02T14:01:09.784Z,14.40
2018-11-02T14:03:42.406Z,14.40
2018-11-02T14:06:14.227Z,14.40
2018-11-02T14:08:47.086Z,14.30
2018-11-02T14:11:19.601Z,14.30
2018-11-02T14:13:51.687Z,14.30
2018-11-02T14:16:23.516Z,14.30
2018-11-02T14:18:55.736Z,14.30
2018-11-02T14:21:26.906Z,14.30
2018-11-02T14:23:59.664Z,14.30
2018-11-02T14:26:31.584Z,14.30
2018-11-02T14:29:04.004Z,14.40
2018-11-02T14:31:36.826Z,14.40
2018-11-02T14:34:09.649Z,14.40
2018-11-02T14:36:42.244Z,14.40
2018-11-02T14:39:15.145Z,14.40
2018-11-02T14:41:46.719Z,14.40
2018-11-02T14:44:18.938Z,14.40
2018-11-02T14:46:50.087Z,14.40
2018-11-02T14:49:22.943Z,14.40
2018-11-02T14:51:54.735Z,14.40
2018-11-02T14:54:27.285Z,14.50
2018-11-02T14:56:58.235Z,14.40
2018-11-02T14:59:29.449Z,14.40
2018-11-02T15:02:01.191Z,14.40
2018-11-02T15:04:32.702Z,14.50
2018-11-02T15:07:04.555Z,14.40
2018-11-02T15:09:36.916Z,14.40
2018-11-02T15:12:08.467Z,14.30
2018-11-02T15:14:41.026Z,14.30
2018-11-02T15:17:12.786Z,14.30
2018-11-02T15:19:44.886Z,14.40
2018-11-02T15:22:17.316Z,14.40
2018-11-02T15:24:50.075Z,14.40
2018-11-02T15:27:20.785Z,14.40
2018-11-02T15:29:52.911Z,14.40
2018-11-02T15:32:24.586Z,14.30
2018-11-02T15:34:55.203Z,14.30
2018-11-02T15:37:27.452Z,14.30
2018-11-02T15:39:59.084Z,14.30
2018-11-02T15:42:31.064Z,14.30
2018-11-02T15:45:03.304Z,14.30
2018-11-02T15:47:34.423Z,14.20
2018-11-02T15:50:06.043Z,14.20
2018-11-02T15:52:37.179Z,14.20
2018-11-02T15:55:09.578Z,14.20
2018-11-02T15:57:40.617Z,14.20
2018-11-02T16:00:16.823Z,14.20
2018-11-02T16:02:48.281Z,14.20
2018-11-02T16:05:20.444Z,14.10
2018-11-02T16:07:52.581Z,14.10
2018-11-02T16:10:25.021Z,14.10
2018-11-02T16:12:56.241Z,14.10
2018-11-02T16:15:28.942Z,14.10
2018-11-02T16:18:00.461Z,14.00
2018-11-02T16:20:32.918Z,14.00
2018-11-02T16:23:04.721Z,13.90
2018-11-02T16:25:36.940Z,13.90
2018-11-02T16:28:08.709Z,13.90
2018-11-02T16:30:40.061Z,13.90
2018-11-02T16:33:11.600Z,13.90
2018-11-02T16:35:42.958Z,13.90
2018-11-02T16:38:14.017Z,13.90
2018-11-02T16:40:44.000Z,13.90
2018-11-02T16:43:15.636Z,13.90
2018-11-02T16:45:47.740Z,13.90
2018-11-02T16:48:19.037Z,13.80
2018-11-02T16:50:51.176Z,13.70
2018-11-02T16:53:23.181Z,13.70
2018-11-02T16:55:55.598Z,13.70
2018-11-02T16:58:27.077Z,13.70
2018-11-02T17:00:59.537Z,13.70
2018-11-02T17:03:31.358Z,13.70
2018-11-02T17:06:03.243Z,13.70
2018-11-02T17:08:35.857Z,13.60
2018-11-02T17:11:07.877Z,13.50
2018-11-02T17:13:39.297Z,13.50
2018-11-02T17:16:11.297Z,13.50
2018-11-02T17:18:43.658Z,13.50
2018-11-02T17:21:15.797Z,13.50
2018-11-02T17:23:47.537Z,13.40
2018-11-02T17:26:19.198Z,13.40
2018-11-02T17:28:50.936Z,13.40
2018-11-02T17:31:22.877Z,13.40
2018-11-02T17:33:54.617Z,13.30
2018-11-02T17:36:26.338Z,13.30
2018-11-02T17:38:57.636Z,13.30
2018-11-02T17:41:29.857Z,13.30
2018-11-02T17:44:02.257Z,13.30
2018-11-02T17:46:34.097Z,13.30
2018-11-02T17:49:06.117Z,13.20
2018-11-02T17:51:38.436Z,13.20
2018-11-02T17:54:11.157Z,14.50
2018-11-02T17:56:42.896Z,13.10
2018-11-02T17:59:14.078Z,13.20
2018-11-02T18:01:46.117Z,13.20
2018-11-02T18:04:19.136Z,13.20
2018-11-02T18:06:53.278Z,13.20
2018-11-02T18:09:25.236Z,13.20
2018-11-02T18:11:58.274Z,13.20
2018-11-02T18:14:30.409Z,13.30
2018-11-02T18:17:02.570Z,13.30
2018-11-02T18:19:35.296Z,13.20
2018-11-02T18:22:08.183Z,13.20
2018-11-02T18:24:39.899Z,13.20
2018-11-02T18:27:11.956Z,13.10
2018-11-02T18:29:44.057Z,13.10
2018-11-02T18:32:17.363Z,13.10
2018-11-02T18:34:48.286Z,13.00
2018-11-02T18:37:20.845Z,12.90
2018-11-02T18:39:52.577Z,12.90
2018-11-02T18:42:24.318Z,12.90
2018-11-02T18:44:55.957Z,13.00
2018-11-02T18:47:33.835Z,13.00
2018-11-02T18:50:07.297Z,12.90
2018-11-02T18:52:39.817Z,12.90
2018-11-02T18:55:11.321Z,12.90
2018-11-02T18:57:42.934Z,12.90
2018-11-02T19:00:15.536Z,12.80
2018-11-02T19:02:47.876Z,12.80
2018-11-02T19:05:20.240Z,12.80
2018-11-02T19:07:51.756Z,12.80
2018-11-02T19:10:23.757Z,12.80
2018-11-02T19:12:55.457Z,12.80
2018-11-02T19:15:27.458Z,12.80
2018-11-02T19:17:59.219Z,12.90
2018-11-02T19:20:32.386Z,12.90
2018-11-02T19:23:04.376Z,12.90
2018-11-02T19:25:37.117Z,12.90
2018-11-02T19:28:08.717Z,12.90
2018-11-02T19:30:40.638Z,12.90
2018-11-02T19:33:12.377Z,12.90
2018-11-02T19:35:44.176Z,12.90
2018-11-02T19:38:16.727Z,12.80
2018-11-02T19:40:49.218Z,12.70
2018-11-02T19:43:21.176Z,12.70
2018-11-02T19:45:52.989Z,12.60
2018-11-02T19:48:25.357Z,12.60
2018-11-02T19:50:57.118Z,12.60
2018-11-02T19:53:28.658Z,12.60
2018-11-02T19:56:00.421Z,12.60
2018-11-02T19:58:32.817Z,12.60
2018-11-02T20:01:05.328Z,12.70
2018-11-02T20:03:36.857Z,12.70
2018-11-02T20:06:08.902Z,12.60
2018-11-02T20:08:41.477Z,12.60
2018-11-02T20:11:13.577Z,12.60
2018-11-02T20:13:44.736Z,12.60
2018-11-02T20:16:18.477Z,12.60
2018-11-02T20:18:50.299Z,12.60
2018-11-02T20:21:22.317Z,12.60
2018-11-02T20:23:53.997Z,12.50
2018-11-02T20:26:25.756Z,12.60
2018-11-02T20:28:56.997Z,12.60
2018-11-02T20:31:28.856Z,12.60
2018-11-02T20:34:00.617Z,12.70
2018-11-02T20:36:32.456Z,12.70
2018-11-02T20:39:04.443Z,12.70
2018-11-02T20:41:36.477Z,12.70
2018-11-02T20:44:08.816Z,12.70
2018-11-02T20:46:40.236Z,12.70
2018-11-02T20:49:12.017Z,12.70
2018-11-02T20:51:44.156Z,12.80
2018-11-02T20:54:16.117Z,12.80
2018-11-02T20:56:47.517Z,12.90
2018-11-02T20:59:19.737Z,13.00
2018-11-02T21:01:51.296Z,13.00
2018-11-02T21:04:23.196Z,13.00
2018-11-02T21:06:55.417Z,13.00
2018-11-02T21:09:27.347Z,13.10
2018-11-02T21:11:59.618Z,13.00
2018-11-02T21:14:31.639Z,13.00
2018-11-02T21:17:03.799Z,12.90
2018-11-02T21:19:35.978Z,12.90
2018-11-02T21:22:08.493Z,12.80
2018-11-02T21:24:40.636Z,12.80
2018-11-02T21:27:12.216Z,12.90
2018-11-02T21:29:43.557Z,12.90
2018-11-02T21:32:16.036Z,12.90
2018-11-02T21:34:46.996Z,13.00
2018-11-02T21:37:20.036Z,13.00
2018-11-02T21:39:51.556Z,13.00
2018-11-02T21:42:23.396Z,13.00
2018-11-02T21:44:55.097Z,13.00
2018-11-02T21:47:27.476Z,13.00
2018-11-02T21:49:58.136Z,12.90
2018-11-02T21:52:30.171Z,12.90
2018-11-02T21:55:01.926Z,13.00
2018-11-02T21:57:33.976Z,13.00
2018-11-02T22:00:05.796Z,13.00
2018-11-02T22:02:38.923Z,13.00
2018-11-02T22:05:12.376Z,13.00
2018-11-02T22:07:45.895Z,12.90
2018-11-02T22:10:18.257Z,12.90
2018-11-02T22:12:51.675Z,12.90
2018-11-02T22:15:23.136Z,12.90
2018-11-02T22:17:56.137Z,12.90
2018-11-02T22:20:27.995Z,12.90
2018-11-02T22:23:00.337Z,12.90
2018-11-02T22:25:32.775Z,12.90
2018-11-02T22:28:04.698Z,12.90
2018-11-02T22:30:36.778Z,13.00
2018-11-02T22:33:09.736Z,13.00
2018-11-02T22:35:41.596Z,12.90
2018-11-02T22:38:14.056Z,12.90
2018-11-02T22:40:45.316Z,12.90
2018-11-02T22:43:18.099Z,12.90
2018-11-02T22:45:49.596Z,12.90
2018-11-02T22:48:25.557Z,12.90
2018-11-02T22:50:58.537Z,12.90
2018-11-02T22:53:30.716Z,13.00
2018-11-02T22:56:03.356Z,12.90
2018-11-02T22:58:35.916Z,12.90
2018-11-02T23:01:12.857Z,12.80
2018-11-02T23:03:45.016Z,12.80
2018-11-02T23:06:17.616Z,12.80
2018-11-02T23:08:49.735Z,12.80
2018-11-02T23:11:21.116Z,12.70
2018-11-02T23:13:52.759Z,12.80
2018-11-02T23:16:24.796Z,12.70
2018-11-02T23:18:56.896Z,12.70
2018-11-02T23:21:27.156Z,12.70
2018-11-02T23:23:58.516Z,12.70
2018-11-02T23:26:30.537Z,12.70
2018-11-02T23:29:01.761Z,12.80
2018-11-02T23:31:34.136Z,12.70
2018-11-02T23:34:05.915Z,12.80
2018-11-02T23:36:37.976Z,12.80
2018-11-02T23:39:10.176Z,12.80
2018-11-02T23:41:42.555Z,12.80
2018-11-02T23:44:14.455Z,12.80
2018-11-02T23:46:45.789Z,12.80
2018-11-02T23:49:17.330Z,12.70
2018-11-02T23:51:48.608Z,12.70
2018-11-02T23:54:19.989Z,12.70
2018-11-02T23:56:51.549Z,12.70
2018-11-02T23:59:23.349Z,12.60
